Time;durP1;ratioP1;P1;durP2;ratioP2;P2;SDS_P1;SDS_P2;PMS_P1;PMS_P2;Temp;Humidity;BMP_temperature;BMP_pressure;BME280_temperature;BME280_humidity;BME280_pressure;Samples;Min_cycle;Max_cycle;Signal;HPM_P1;HPM_P2
2022/01/15 00:02:28;;;;;;;41.75;17.42;;;3.90;99.90;;;;;;12396572;28;20600;-86
2022/01/15 00:08:30;;;;;;;46.38;18.27;;;3.90;99.90;;;;;;12384585;28;20144;-87
2022/01/15 00:14:38;;;;;;;46.47;16.73;;;3.90;99.90;;;;;;12381712;28;20455;-86
2022/01/15 00:20:41;;;;;;;42.67;17.63;;;3.90;99.90;;;;;;12423440;28;20042;-87
2022/01/15 00:26:43;;;;;;;41.88;16.67;;;3.90;99.90;;;;;;12410543;28;20080;-86
2022/01/15 00:32:45;;;;;;;42.10;16.00;;;3.90;99.90;;;;;;12411398;28;20061;-86
2022/01/15 00:38:48;;;;;;;39.78;16.02;;;3.80;99.90;;;;;;12423702;28;20049;-87
2022/01/15 00:44:51;;;;;;;39.03;15.85;;;3.80;99.90;;;;;;12400612;28;20841;-86
2022/01/15 00:50:53;;;;;;;38.05;15.93;;;3.90;99.90;;;;;;12385789;28;20168;-87
2022/01/15 00:56:55;;;;;;;38.15;15.70;;;3.90;99.90;;;;;;12391691;28;20605;-86
2022/01/15 01:02:57;;;;;;;42.72;16.45;;;3.90;99.90;;;;;;12393991;28;20084;-86
2022/01/15 01:08:59;;;;;;;46.40;19.85;;;3.90;99.90;;;;;;12400938;28;20119;-87
2022/01/15 01:27:48;;;;;;;50.47;17.70;;;3.90;99.90;;;;;;12396042;28;20058;-87
2022/01/15 01:33:54;;;;;;;46.67;18.58;;;3.90;99.90;;;;;;12379063;28;20046;-86
2022/01/15 01:40:14;;;;;;;49.67;19.08;;;3.90;99.90;;;;;;12395112;28;20058;-88
2022/01/15 01:46:34;;;;;;;54.78;19.65;;;3.90;99.90;;;;;;12388390;28;20104;-87
2022/01/15 01:52:36;;;;;;;47.13;19.17;;;3.90;99.90;;;;;;12376723;28;20497;-86
2022/01/15 01:58:38;;;;;;;57.63;20.58;;;3.90;99.90;;;;;;12392356;28;20058;-87
2022/01/15 02:04:40;;;;;;;49.83;18.95;;;3.90;99.90;;;;;;12384082;28;20052;-87
2022/01/15 02:10:43;;;;;;;53.03;20.70;;;3.90;99.90;;;;;;12383309;28;20074;-85
2022/01/15 02:16:46;;;;;;;67.35;21.00;;;3.90;99.90;;;;;;12392356;28;20181;-86
2022/01/15 02:29:12;;;;;;;58.72;21.65;;;3.80;99.90;;;;;;12397916;28;20053;-85
2022/01/15 02:35:14;;;;;;;71.13;21.40;;;3.90;99.90;;;;;;12387623;28;20133;-86
2022/01/15 02:41:31;;;;;;;70.65;22.17;;;3.90;99.90;;;;;;12381765;28;20124;-87
2022/01/15 02:53:56;;;;;;;61.20;20.02;;;3.90;99.90;;;;;;12388697;28;20448;-86
2022/01/15 02:59:57;;;;;;;73.13;22.15;;;3.90;99.90;;;;;;12381130;28;20581;-86
2022/01/15 03:05:59;;;;;;;69.18;20.45;;;3.90;99.90;;;;;;12381116;28;20488;-86
2022/01/15 03:12:03;;;;;;;81.50;23.10;;;3.90;99.90;;;;;;12380046;28;20092;-86
2022/01/15 03:18:05;;;;;;;110.60;24.75;;;3.80;99.90;;;;;;12391585;28;20048;-86
2022/01/15 03:24:06;;;;;;;105.47;24.00;;;3.80;99.90;;;;;;12391639;28;20053;-87
2022/01/15 03:30:11;;;;;;;121.95;23.60;;;3.80;99.90;;;;;;12373986;28;20529;-87
2022/01/15 03:36:13;;;;;;;99.68;23.55;;;3.80;99.90;;;;;;12380961;28;20078;-86
2022/01/15 03:42:15;;;;;;;118.38;23.88;;;3.80;99.90;;;;;;12387839;28;20070;-86
2022/01/15 03:48:17;;;;;;;150.98;25.85;;;3.80;99.90;;;;;;12382309;28;20169;-86
2022/01/15 03:54:19;;;;;;;143.38;26.02;;;3.70;99.90;;;;;;12376479;28;20053;-86
2022/01/15 04:00:26;;;;;;;147.05;25.10;;;3.80;99.90;;;;;;12385907;28;20566;-87
2022/01/15 04:06:28;;;;;;;131.77;25.45;;;3.70;99.90;;;;;;12382494;28;20562;-86
2022/01/15 04:12:30;;;;;;;122.72;25.58;;;3.70;99.90;;;;;;12401041;28;20073;-86
2022/01/15 04:18:37;;;;;;;126.93;25.67;;;3.80;99.90;;;;;;12388351;28;20050;-85
2022/01/15 04:24:38;;;;;;;118.60;23.85;;;3.70;99.90;;;;;;12397868;28;20164;-86
2022/01/15 04:30:47;;;;;;;111.68;23.50;;;3.80;99.90;;;;;;12391724;28;20050;-86
2022/01/15 04:36:51;;;;;;;110.18;24.63;;;3.80;99.90;;;;;;12382416;28;20054;-87
2022/01/15 04:42:52;;;;;;;103.63;24.27;;;3.70;99.90;;;;;;12379384;28;20096;-86
2022/01/15 04:48:54;;;;;;;106.80;25.00;;;3.80;99.90;;;;;;12379888;28;20096;-87
2022/01/15 04:54:56;;;;;;;99.72;24.48;;;3.70;99.90;;;;;;12401697;28;20062;-87
2022/01/15 05:00:58;;;;;;;107.15;24.88;;;3.70;99.90;;;;;;12390777;28;20042;-86
2022/01/15 05:07:00;;;;;;;94.68;23.58;;;3.70;99.90;;;;;;12385856;28;20482;-86
2022/01/15 05:13:03;;;;;;;95.20;24.42;;;3.70;99.90;;;;;;12395929;28;20133;-86
2022/01/15 05:19:05;;;;;;;109.25;25.27;;;3.70;99.90;;;;;;12385268;28;20054;-87
2022/01/15 05:25:07;;;;;;;102.28;25.73;;;3.60;99.90;;;;;;12392623;28;20787;-87
2022/01/15 05:31:14;;;;;;;91.95;24.10;;;3.60;99.90;;;;;;12401610;28;20133;-86
2022/01/15 05:37:16;;;;;;;81.40;22.75;;;3.60;99.90;;;;;;12410089;28;20042;-87
2022/01/15 05:43:20;;;;;;;;;;;3.60;99.90;;;;;;12424882;28;20514;-87
2022/01/15 05:49:22;;;;;;;89.28;23.98;;;3.60;99.90;;;;;;12403750;28;19925;-86
2022/01/15 05:55:25;;;;;;;74.60;22.83;;;3.60;99.90;;;;;;12378171;28;20062;-86
2022/01/15 06:01:26;;;;;;;67.25;21.85;;;3.60;99.90;;;;;;12383883;28;20132;-86
2022/01/15 06:07:28;;;;;;;74.65;21.88;;;3.60;99.90;;;;;;12393799;28;20084;-87
2022/01/15 06:13:30;;;;;;;65.93;21.95;;;3.60;99.90;;;;;;12393145;28;20113;-86
2022/01/15 06:19:32;;;;;;;68.80;21.58;;;3.60;99.90;;;;;;12376152;28;20569;-87
2022/01/15 06:25:34;;;;;;;70.18;21.40;;;3.60;99.90;;;;;;12375111;28;20442;-87
2022/01/15 06:31:36;;;;;;;72.13;24.17;;;3.60;99.90;;;;;;12397024;28;20050;-85
2022/01/15 06:37:38;;;;;;;72.80;22.85;;;3.50;99.90;;;;;;12379908;28;20057;-86
2022/01/15 06:43:41;;;;;;;82.30;23.30;;;3.60;99.90;;;;;;12385238;28;20085;-86
2022/01/15 06:49:42;;;;;;;80.35;23.55;;;3.50;99.90;;;;;;12372399;28;20543;-86
2022/01/15 06:55:49;;;;;;;75.35;22.40;;;3.50;99.90;;;;;;12381856;28;20050;-87
2022/01/15 07:01:50;;;;;;;70.10;21.45;;;3.50;99.90;;;;;;12366636;28;20045;-86
2022/01/15 07:07:52;;;;;;;86.53;22.20;;;3.60;99.90;;;;;;12388044;28;20739;-86
2022/01/15 07:13:54;;;;;;;66.32;21.45;;;3.60;99.90;;;;;;12388944;28;20096;-87
2022/01/15 07:19:56;;;;;;;66.45;19.45;;;3.60;99.90;;;;;;12384276;28;20433;-86
2022/01/15 07:25:58;;;;;;;102.65;23.23;;;3.60;99.90;;;;;;12377462;28;20055;-87
2022/01/15 07:32:00;;;;;;;87.78;22.30;;;3.60;99.90;;;;;;12380834;28;20959;-86
2022/01/15 07:38:02;;;;;;;85.88;22.33;;;3.60;99.90;;;;;;12372128;28;20054;-87
2022/01/15 07:44:06;;;;;;;54.17;19.03;;;3.70;99.90;;;;;;12368679;28;20050;-86
2022/01/15 07:50:11;;;;;;;57.20;19.33;;;3.70;99.90;;;;;;12380683;28;20046;-86
2022/01/15 07:56:13;;;;;;;75.03;21.45;;;3.70;99.90;;;;;;12366686;28;20058;-87
2022/01/15 08:02:15;;;;;;;59.67;20.60;;;3.70;99.90;;;;;;12389743;28;20095;-87
2022/01/15 08:08:18;;;;;;;57.85;21.25;;;3.70;99.90;;;;;;12388282;28;20046;-87
2022/01/15 08:14:19;;;;;;;56.55;20.35;;;3.80;99.90;;;;;;12369360;28;20464;-86
2022/01/15 08:20:21;;;;;;;57.08;20.05;;;3.80;99.90;;;;;;12378678;28;20053;-87
2022/01/15 08:26:23;;;;;;;57.88;21.10;;;3.80;99.90;;;;;;12375841;28;20077;-87
2022/01/15 08:32:25;;;;;;;59.60;21.05;;;3.80;99.90;;;;;;12377885;28;20137;-87
2022/01/15 08:38:27;;;;;;;47.78;19.42;;;3.90;99.90;;;;;;12392270;28;20122;-86
2022/01/15 08:44:51;;;;;;;53.67;20.08;;;3.90;99.90;;;;;;12385369;28;20565;-87
2022/01/15 08:50:53;;;;;;;47.22;18.40;;;4.00;99.90;;;;;;12386570;28;20062;-86
2022/01/15 08:56:55;;;;;;;51.72;18.80;;;4.00;99.90;;;;;;12408828;28;21033;-87
2022/01/15 09:02:57;;;;;;;56.90;19.55;;;4.10;99.90;;;;;;12389545;28;20461;-87
2022/01/15 09:08:59;;;;;;;55.75;20.60;;;4.20;99.90;;;;;;12389252;28;20157;-87
2022/01/15 09:15:02;;;;;;;50.80;19.52;;;4.20;99.90;;;;;;12385038;28;20099;-86
2022/01/15 09:21:04;;;;;;;54.60;19.02;;;4.30;99.90;;;;;;12388467;28;20129;-87
2022/01/15 09:33:26;;;;;;;43.63;18.98;;;4.30;99.90;;;;;;12399903;28;20099;-87
2022/01/15 09:39:28;;;;;;;43.58;19.13;;;4.40;99.90;;;;;;12392752;28;20046;-87
2022/01/15 09:45:34;;;;;;;38.17;16.48;;;4.50;99.90;;;;;;12398108;28;20050;-86
2022/01/15 09:51:36;;;;;;;37.85;16.33;;;4.60;99.90;;;;;;12380022;28;20046;-87
2022/01/15 09:57:39;;;;;;;43.88;19.95;;;4.70;99.90;;;;;;12372303;28;20054;-86
2022/01/15 10:03:41;;;;;;;46.95;19.90;;;4.70;99.90;;;;;;12362351;28;20049;-87
2022/01/15 10:09:45;;;;;;;39.83;19.05;;;4.80;99.90;;;;;;12372633;28;20053;-86
2022/01/15 10:16:08;;;;;;;47.47;20.40;;;4.90;99.90;;;;;;12390257;28;20422;-87
2022/01/15 10:22:13;;;;;;;45.88;19.33;;;4.90;99.90;;;;;;12385994;28;20073;-87
2022/01/15 10:28:15;;;;;;;37.75;18.73;;;5.00;99.90;;;;;;12381489;28;20146;-87
2022/01/15 10:34:27;;;;;;;43.47;20.90;;;5.10;99.90;;;;;;12392273;28;20521;-87
2022/01/15 10:40:55;;;;;;;38.97;18.92;;;5.10;99.90;;;;;;12393472;28;20077;-87
2022/01/15 10:47:12;;;;;;;40.05;19.30;;;5.30;99.90;;;;;;12407968;28;20042;-87
2022/01/15 10:53:14;;;;;;;37.47;17.38;;;5.40;99.90;;;;;;12422770;28;20069;-87
2022/01/15 10:59:16;;;;;;;34.92;17.65;;;5.50;99.90;;;;;;12374412;28;20169;-87
2022/01/15 11:05:33;;;;;;;14.70;8.20;;;5.60;99.90;;;;;;12381725;28;20433;-87
2022/01/15 11:11:51;;;;;;;7.95;4.82;;;5.20;99.90;;;;;;12369552;28;20096;-86
2022/01/15 11:17:53;;;;;;;9.20;4.38;;;5.10;99.90;;;;;;12392191;28;20049;-86
2022/01/15 11:24:02;;;;;;;5.32;3.08;;;5.20;99.90;;;;;;12380511;28;20129;-86
2022/01/15 11:30:05;;;;;;;6.28;3.88;;;5.20;99.90;;;;;;12379644;28;20057;-86
2022/01/15 11:36:26;;;;;;;5.97;3.72;;;5.10;99.90;;;;;;12389846;28;20070;-87
2022/01/15 11:42:35;;;;;;;6.28;4.10;;;5.10;99.90;;;;;;12376169;28;20087;-86
2022/01/15 11:48:37;;;;;;;5.53;3.72;;;5.10;99.90;;;;;;12392921;28;20096;-86
2022/01/15 11:54:40;;;;;;;5.15;3.65;;;5.20;99.90;;;;;;12418424;28;20045;-86
2022/01/15 12:00:43;;;;;;;7.05;4.70;;;5.10;99.90;;;;;;12394176;28;20077;-86
2022/01/15 12:07:06;;;;;;;9.40;5.60;;;5.20;99.90;;;;;;12400449;28;20072;-86
2022/01/15 12:13:18;;;;;;;9.45;5.93;;;5.10;99.90;;;;;;12395804;28;20148;-86
2022/01/15 12:19:35;;;;;;;8.77;5.97;;;5.20;99.90;;;;;;12384950;28;20417;-86
2022/01/15 12:25:37;;;;;;;9.90;6.07;;;5.10;99.90;;;;;;12383264;28;20531;-86
2022/01/15 12:31:49;;;;;;;10.60;6.63;;;5.10;99.90;;;;;;12393011;28;21054;-86
2022/01/15 12:38:08;;;;;;;11.02;6.55;;;5.10;99.90;;;;;;12385236;28;20077;-85
2022/01/15 12:44:10;;;;;;;10.35;6.35;;;5.00;99.90;;;;;;12397188;28;20402;-86
2022/01/15 12:50:13;;;;;;;9.45;6.15;;;5.00;99.90;;;;;;12389203;28;20045;-86
2022/01/15 12:56:18;;;;;;;10.55;6.45;;;5.00;99.90;;;;;;12379480;28;20081;-86
2022/01/15 13:02:21;;;;;;;10.57;6.40;;;4.90;99.90;;;;;;12381551;28;20046;-86
2022/01/15 13:08:33;;;;;;;9.27;6.15;;;4.90;99.90;;;;;;12398698;28;20081;-86
2022/01/15 13:14:37;;;;;;;8.93;6.10;;;4.70;99.90;;;;;;12415118;28;20625;-87
2022/01/15 13:20:39;;;;;;;8.93;6.25;;;4.80;99.90;;;;;;12393876;28;20057;-86
2022/01/15 13:26:47;;;;;;;9.02;6.35;;;4.70;99.90;;;;;;12402077;28;20204;-85
2022/01/15 13:33:07;;;;;;;8.10;5.28;;;4.70;99.90;;;;;;12403868;28;20129;-83
2022/01/15 13:39:11;;;;;;;8.85;6.00;;;4.60;99.90;;;;;;12423496;28;20495;-87
2022/01/15 13:45:13;;;;;;;11.15;6.40;;;4.60;99.90;;;;;;12377241;28;20108;-89
2022/01/15 13:57:37;;;;;;;10.65;6.70;;;4.40;99.90;;;;;;12401652;28;20557;-84
2022/01/15 14:03:39;;;;;;;12.40;6.55;;;4.30;99.90;;;;;;12395946;28;20097;-84
2022/01/15 14:09:44;;;;;;;9.65;5.85;;;4.30;99.90;;;;;;12398903;28;20065;-85
2022/01/15 14:15:46;;;;;;;10.68;6.63;;;4.30;99.90;;;;;;12397198;28;20076;-87
2022/01/15 14:21:53;;;;;;;12.00;6.50;;;4.30;99.90;;;;;;12403272;28;20076;-84
2022/01/15 14:28:07;;;;;;;10.25;5.95;;;4.30;99.90;;;;;;12407339;28;20050;-86
2022/01/15 14:34:09;;;;;;;11.23;6.95;;;4.20;99.90;;;;;;12428272;28;20046;-84
2022/01/15 14:40:12;;;;;;;14.23;7.40;;;4.40;99.90;;;;;;12419099;28;20051;-85
2022/01/15 14:46:14;;;;;;;12.07;7.07;;;4.20;99.90;;;;;;12427795;28;20053;-84
2022/01/15 14:52:16;;;;;;;11.82;6.65;;;4.10;99.90;;;;;;12378077;28;20837;-87
2022/01/15 14:58:18;;;;;;;11.82;7.03;;;4.00;99.90;;;;;;12393706;28;20085;-85
2022/01/15 15:04:19;;;;;;;15.90;7.50;;;3.90;99.90;;;;;;12378090;28;20536;-85
2022/01/15 15:10:21;;;;;;;11.30;7.00;;;3.90;99.90;;;;;;12374956;28;20061;-85
2022/01/15 15:16:23;;;;;;;12.40;7.35;;;3.80;99.90;;;;;;12374302;28;20050;-85
2022/01/15 15:22:26;;;;;;;12.27;8.20;;;3.80;99.90;;;;;;12376205;28;20053;-86
2022/01/15 15:28:28;;;;;;;13.20;7.85;;;3.80;99.90;;;;;;12374881;28;20596;-84
2022/01/15 15:34:30;;;;;;;13.75;8.95;;;3.70;99.90;;;;;;12380801;28;20499;-85
2022/01/15 15:40:32;;;;;;;16.15;9.25;;;3.70;99.90;;;;;;12386112;28;20053;-83
2022/01/15 15:46:34;;;;;;;14.18;10.10;;;3.70;99.90;;;;;;12390767;28;20120;-84
2022/01/15 15:52:37;;;;;;;11.35;8.40;;;3.50;99.90;;;;;;12398288;28;20065;-86
2022/01/15 15:58:39;;;;;;;14.90;9.63;;;3.60;99.90;;;;;;12388075;28;20084;-83
2022/01/15 16:04:45;;;;;;;13.95;9.25;;;3.50;99.90;;;;;;12411472;28;20455;-86
2022/01/15 16:10:48;;;;;;;12.93;8.93;;;3.50;99.90;;;;;;12395863;28;20093;-85
2022/01/15 16:16:51;;;;;;;13.38;9.32;;;3.50;99.90;;;;;;12403779;28;20061;-84
2022/01/15 16:22:53;;;;;;;14.07;9.65;;;3.50;99.90;;;;;;12383361;28;20077;-86
2022/01/15 16:28:59;;;;;;;14.50;9.43;;;3.40;99.90;;;;;;12394328;28;20057;-85
2022/01/15 16:35:01;;;;;;;16.13;10.10;;;3.50;99.90;;;;;;12381150;28;20054;-84
2022/01/15 16:41:04;;;;;;;16.90;10.00;;;3.40;99.90;;;;;;12383201;28;20510;-84
2022/01/15 16:47:07;;;;;;;14.18;10.10;;;3.40;99.90;;;;;;12381166;28;20084;-85
2022/01/15 16:53:09;;;;;;;15.43;9.88;;;3.30;99.90;;;;;;12382001;28;20049;-85
2022/01/15 16:59:11;;;;;;;17.88;11.13;;;3.20;99.90;;;;;;12380852;28;20055;-87
2022/01/15 17:05:14;;;;;;;18.92;11.05;;;3.10;99.90;;;;;;12382404;28;20140;-85
2022/01/15 17:11:15;;;;;;;19.02;11.10;;;3.00;99.90;;;;;;12391668;28;20046;-86
2022/01/15 17:17:19;;;;;;;17.02;11.15;;;3.10;99.90;;;;;;12398497;28;20053;-87
2022/01/15 17:23:21;;;;;;;16.52;11.43;;;3.00;99.90;;;;;;12374047;28;20506;-87
2022/01/15 17:29:23;;;;;;;19.38;11.07;;;3.00;99.90;;;;;;12369568;28;20693;-84
2022/01/15 17:35:26;;;;;;;19.30;12.05;;;3.00;99.90;;;;;;12389841;28;20140;-84
2022/01/15 17:41:29;;;;;;;20.10;11.95;;;2.90;99.90;;;;;;12387937;28;20077;-86
2022/01/15 17:47:31;;;;;;;17.77;11.02;;;2.90;99.90;;;;;;12388957;28;20053;-88
2022/01/15 17:53:33;;;;;;;20.23;12.77;;;3.00;99.90;;;;;;12389318;28;20514;-86
2022/01/15 17:59:35;;;;;;;22.20;12.75;;;2.90;99.90;;;;;;12386612;28;20122;-85
2022/01/15 18:05:38;;;;;;;21.40;12.77;;;3.00;99.90;;;;;;12392952;28;20061;-85
2022/01/15 18:11:40;;;;;;;21.73;13.63;;;2.90;99.90;;;;;;12415598;28;20532;-87
2022/01/15 18:17:42;;;;;;;20.55;12.55;;;2.90;99.90;;;;;;12386350;28;20074;-84
2022/01/15 18:23:44;;;;;;;24.40;13.45;;;2.90;99.90;;;;;;12379678;28;20089;-84
2022/01/15 18:29:46;;;;;;;19.40;12.10;;;2.90;99.90;;;;;;12391324;28;20165;-83
2022/01/15 18:35:48;;;;;;;21.88;12.57;;;2.80;99.90;;;;;;12386509;28;20054;-86
2022/01/15 18:41:49;;;;;;;22.50;12.98;;;2.80;99.90;;;;;;12396096;28;20050;-85
2022/01/15 18:47:53;;;;;;;23.67;13.70;;;2.70;99.90;;;;;;12394097;28;20137;-85
2022/01/15 18:53:55;;;;;;;23.00;13.53;;;2.70;99.90;;;;;;12379294;28;20046;-85
2022/01/15 18:59:57;;;;;;;23.50;13.40;;;2.70;99.90;;;;;;12400360;28;20092;-85
2022/01/15 19:05:59;;;;;;;30.42;14.90;;;2.70;99.90;;;;;;12386368;28;20046;-85
2022/01/15 19:12:05;;;;;;;24.17;14.15;;;2.70;99.90;;;;;;12388991;28;20042;-85
2022/01/15 19:18:07;;;;;;;26.33;14.13;;;2.80;99.90;;;;;;12382354;28;20050;-85
2022/01/15 19:24:11;;;;;;;23.38;13.77;;;2.70;99.90;;;;;;12388522;28;20133;-85
2022/01/15 19:30:16;;;;;;;23.23;12.97;;;2.80;99.90;;;;;;12407595;28;20097;-84
2022/01/15 19:36:18;;;;;;;22.17;13.45;;;2.70;99.90;;;;;;12408710;28;20332;-84
2022/01/15 19:42:19;;;;;;;24.50;13.35;;;2.50;99.90;;;;;;12404414;28;20069;-84
2022/01/15 19:48:21;;;;;;;25.70;14.13;;;2.40;99.90;;;;;;12396904;28;20054;-85
2022/01/15 19:54:24;;;;;;;25.48;13.98;;;2.50;99.90;;;;;;12398120;28;20042;-86
2022/01/15 20:00:29;;;;;;;22.30;13.32;;;2.50;99.90;;;;;;12400926;28;20077;-84
2022/01/15 20:06:31;;;;;;;25.10;14.38;;;2.40;99.90;;;;;;12389107;28;20411;-84
2022/01/15 20:12:33;;;;;;;23.60;13.15;;;2.40;99.90;;;;;;12377239;28;20149;-85
2022/01/15 20:18:38;;;;;;;23.10;12.93;;;2.40;99.90;;;;;;12396139;28;20054;-83
2022/01/15 20:24:41;;;;;;;25.95;13.73;;;2.40;99.90;;;;;;12409302;28;20034;-85
2022/01/15 20:30:44;;;;;;;36.42;12.77;;;2.40;99.90;;;;;;12384795;28;20465;-84
2022/01/15 20:36:47;;;;;;;37.95;14.93;;;2.30;99.90;;;;;;12386806;28;20566;-84
2022/01/15 20:42:48;;;;;;;24.20;13.05;;;2.20;99.90;;;;;;12402463;28;20084;-86
2022/01/15 20:48:50;;;;;;;26.30;13.75;;;2.20;99.90;;;;;;12400172;28;20061;-85
2022/01/15 20:54:52;;;;;;;29.38;13.68;;;2.30;99.90;;;;;;12408227;28;20042;-85
2022/01/15 21:00:55;;;;;;;32.05;13.50;;;2.20;99.90;;;;;;12409787;28;20049;-85
2022/01/15 21:06:57;;;;;;;32.70;13.70;;;2.20;99.90;;;;;;12399592;28;20768;-84
2022/01/15 21:13:01;;;;;;;29.88;14.23;;;2.30;99.90;;;;;;12404320;28;20201;-85
2022/01/15 21:19:04;;;;;;;27.80;13.93;;;2.30;99.90;;;;;;12411739;28;20110;-85
2022/01/15 21:25:07;;;;;;;26.67;13.48;;;2.30;99.90;;;;;;12392713;28;20049;-85
2022/01/15 21:31:24;;;;;;;31.15;13.02;;;2.30;99.90;;;;;;12412877;28;20049;-83
2022/01/15 21:37:26;;;;;;;30.13;12.35;;;2.30;99.90;;;;;;12411173;28;20050;-85
2022/01/15 21:43:31;;;;;;;63.08;13.43;;;2.30;99.90;;;;;;12413699;28;20148;-85
2022/01/15 21:49:33;;;;;;;33.92;12.63;;;2.30;99.90;;;;;;12412757;28;20086;-85
2022/01/15 21:55:35;;;;;;;42.33;12.73;;;2.30;99.90;;;;;;12420290;28;20062;-84
2022/01/15 22:01:37;;;;;;;56.00;14.40;;;2.20;99.90;;;;;;12444192;28;20042;-84
2022/01/15 22:07:40;;;;;;;38.10;14.88;;;2.20;99.90;;;;;;12395262;28;20185;-84
2022/01/15 22:13:43;;;;;;;33.75;12.40;;;2.20;99.90;;;;;;12403094;28;20399;-85
2022/01/15 22:19:46;;;;;;;43.10;12.43;;;2.20;99.90;;;;;;12390928;28;20046;-84
2022/01/15 22:25:48;;;;;;;54.78;13.85;;;2.20;99.90;;;;;;12399650;28;20066;-85
2022/01/15 22:31:50;;;;;;;51.10;12.40;;;2.20;99.90;;;;;;12391218;28;20062;-83
2022/01/15 22:37:52;;;;;;;35.90;11.13;;;2.20;99.90;;;;;;12401976;28;20038;-85
2022/01/15 22:43:55;;;;;;;52.95;12.68;;;2.20;99.90;;;;;;12402346;28;20096;-85
2022/01/15 22:49:57;;;;;;;69.05;12.60;;;2.10;99.90;;;;;;12380490;28;20061;-85
2022/01/15 22:55:59;;;;;;;34.78;11.10;;;2.10;99.90;;;;;;12399798;28;20066;-84
2022/01/15 23:02:01;;;;;;;63.47;12.75;;;2.20;99.90;;;;;;12376360;28;20049;-84
2022/01/15 23:08:04;;;;;;;43.05;12.07;;;2.20;99.90;;;;;;12384560;28;20050;-83
2022/01/15 23:14:15;;;;;;;51.67;11.30;;;2.10;99.90;;;;;;12393727;28;20080;-83
2022/01/15 23:20:17;;;;;;;64.50;11.27;;;2.00;99.90;;;;;;12385538;28;20745;-85
2022/01/15 23:26:24;;;;;;;33.35;11.30;;;2.00;99.90;;;;;;12388795;28;20077;-83
2022/01/15 23:32:26;;;;;;;49.00;10.82;;;2.00;99.90;;;;;;12384895;28;20054;-85
2022/01/15 23:38:28;;;;;;;50.47;11.13;;;2.00;99.90;;;;;;12387761;28;20457;-85
2022/01/15 23:44:31;;;;;;;33.22;11.05;;;1.90;99.90;;;;;;12378709;28;20150;-85
2022/01/15 23:50:33;;;;;;;23.33;10.10;;;1.90;99.90;;;;;;12379781;28;20042;-83
2022/01/15 23:56:38;;;;;;;24.30;10.38;;;1.90;99.90;;;;;;12385907;28;20054;-83
